createdAt,value
2023-05-06T00:00:01.103Z,1023.32
2023-05-06T00:10:00.392Z,1023.34
2023-05-06T00:20:01.086Z,1023.33
2023-05-06T00:30:01.042Z,1023.41
2023-05-06T00:40:01.146Z,1023.32
2023-05-06T00:50:02.659Z,1022.98
2023-05-06T01:00:01.190Z,1022.79
2023-05-06T01:10:01.406Z,1022.67
2023-05-06T01:20:00.486Z,1022.59
2023-05-06T01:30:02.718Z,1022.57
2023-05-06T01:40:01.083Z,1022.57
2023-05-06T01:50:01.260Z,1022.59
2023-05-06T02:10:00.973Z,1022.49
2023-05-06T02:20:01.244Z,1022.60
2023-05-06T02:30:01.033Z,1022.65
2023-05-06T02:50:01.051Z,1022.69
2023-05-06T03:00:01.321Z,1022.64
2023-05-06T03:10:01.119Z,1022.50
2023-05-06T03:20:01.070Z,1022.50
2023-05-06T03:30:00.390Z,1022.65
2023-05-06T03:40:01.736Z,1022.60
2023-05-06T03:50:01.546Z,1022.50
2023-05-06T04:10:03.541Z,1022.31
2023-05-06T04:20:01.090Z,1022.45
2023-05-06T04:30:01.087Z,1022.51
2023-05-06T04:50:02.068Z,1022.67
2023-05-06T05:00:00.522Z,1022.71
2023-05-06T05:10:01.026Z,1022.71
2023-05-06T05:20:02.570Z,1022.86
2023-05-06T05:30:01.479Z,1022.89
2023-05-06T05:50:01.209Z,1022.87
2023-05-06T06:00:02.817Z,1022.85
2023-05-06T06:10:01.504Z,1022.86
2023-05-06T06:20:01.746Z,1022.99
2023-05-06T06:30:01.426Z,1023.07
2023-05-06T06:40:01.295Z,1023.16
2023-05-06T06:50:01.359Z,1023.10
2023-05-06T07:00:01.367Z,1023.14
2023-05-06T07:10:01.533Z,1023.11
2023-05-06T07:20:01.649Z,1023.19
2023-05-06T07:30:00.405Z,1023.20
2023-05-06T07:40:01.358Z,1023.24
2023-05-06T07:50:01.491Z,1023.39
2023-05-06T08:00:01.020Z,1023.38
2023-05-06T08:10:01.141Z,1023.46
2023-05-06T08:30:01.208Z,1023.67
2023-05-06T08:40:01.213Z,1023.76
2023-05-06T08:50:01.039Z,1023.89
2023-05-06T09:00:02.085Z,1024.03
2023-05-06T09:10:01.497Z,1024.10
2023-05-06T09:20:02.038Z,1024.10
2023-05-06T09:30:01.080Z,1024.21
2023-05-06T09:40:01.276Z,1024.23
2023-05-06T09:50:03.168Z,1024.09
2023-05-06T10:00:02.287Z,1024.25
2023-05-06T10:10:01.082Z,1024.26
2023-05-06T10:20:02.224Z,1024.34
2023-05-06T10:30:01.023Z,1024.38
2023-05-06T10:40:00.999Z,1024.34
2023-05-06T10:50:01.106Z,1024.40
2023-05-06T11:00:02.289Z,1024.42
2023-05-06T11:10:03.305Z,1024.48
2023-05-06T11:20:02.190Z,1024.59
2023-05-06T11:30:01.058Z,1024.70
2023-05-06T11:40:03.331Z,1024.74
2023-05-06T11:50:04.655Z,1024.82
2023-05-06T12:00:01.335Z,1024.91
2023-05-06T12:10:01.049Z,1025.05
2023-05-06T12:30:01.754Z,1025.26
2023-05-06T12:40:01.489Z,1025.40
2023-05-06T12:50:01.215Z,1025.54
2023-05-06T13:10:01.058Z,1025.65
2023-05-06T13:20:02.746Z,1025.66
2023-05-06T13:30:00.411Z,1025.70
2023-05-06T13:40:01.665Z,1025.64
2023-05-06T13:50:02.832Z,1025.66
2023-05-06T14:00:01.203Z,1025.60
2023-05-06T14:10:01.327Z,1025.63
2023-05-06T14:20:02.075Z,1025.67
2023-05-06T14:30:01.238Z,1025.67
2023-05-06T14:40:01.367Z,1025.62
2023-05-06T14:50:01.295Z,1025.63
2023-05-06T15:00:01.586Z,1025.82
2023-05-06T15:10:01.073Z,1025.95
2023-05-06T15:20:01.091Z,1026.05
2023-05-06T15:30:00.452Z,1026.10
2023-05-06T15:40:01.059Z,1026.00
2023-05-06T15:50:01.468Z,1025.98
2023-05-06T16:00:01.354Z,1026.04
2023-05-06T16:10:01.296Z,1026.04
2023-05-06T16:20:00.485Z,1026.11
2023-05-06T16:30:01.015Z,1026.18
2023-05-06T16:40:02.201Z,1026.25
2023-05-06T16:50:01.966Z,1026.24
2023-05-06T17:00:01.597Z,1026.32
2023-05-06T17:10:01.460Z,1026.38
2023-05-06T17:30:01.175Z,1026.57
2023-05-06T17:40:01.031Z,1026.54
2023-05-06T17:50:01.508Z,1026.56
2023-05-06T18:10:01.042Z,1026.63
2023-05-06T18:30:02.965Z,1026.74
2023-05-06T18:50:01.052Z,1026.98
2023-05-06T19:00:01.130Z,1027.01
2023-05-06T19:10:01.272Z,1027.07
2023-05-06T19:20:02.520Z,1027.16
2023-05-06T19:30:01.006Z,1027.24
2023-05-06T19:40:01.217Z,1027.20
2023-05-06T19:50:01.408Z,1027.23
2023-05-06T20:00:01.310Z,1027.23
2023-05-06T20:10:01.925Z,1027.24
2023-05-06T20:20:04.274Z,1027.36
2023-05-06T20:30:01.560Z,1027.42
2023-05-06T20:40:01.092Z,1027.42
2023-05-06T20:50:01.201Z,1027.44
2023-05-06T21:00:01.430Z,1027.49
2023-05-06T21:10:01.870Z,1027.53
2023-05-06T21:20:01.402Z,1027.54
2023-05-06T21:30:01.223Z,1027.57
2023-05-06T21:40:01.323Z,1027.54
2023-05-06T21:50:01.809Z,1027.51
2023-05-06T22:00:01.065Z,1027.63
2023-05-06T22:10:01.053Z,1027.66
2023-05-06T22:20:01.406Z,1027.68
2023-05-06T22:30:01.079Z,1027.69
2023-05-06T22:40:02.482Z,1027.75
2023-05-06T22:50:01.246Z,1027.75
2023-05-06T23:00:01.149Z,1027.74
2023-05-06T23:10:00.962Z,1027.86
2023-05-06T23:30:01.536Z,1027.82
2023-05-06T23:40:01.492Z,1027.80
2023-05-06T23:50:01.353Z,1027.84
